Steyregg, Austria
Current Conditions -  °F | °C
As of 2:50 AM on Sunday 26 Oct 2014 (Local Time) from LOWL Reporting Station
Broken Clouds Broken Clouds  
Wind Chill: 43°   Ceiling: 800
Heat Index: 43°   Visibility: 4mi
Dew Point: 41°   Wind: 2mph
Humidity: 93%   Direction: NA
Pressure: 30.3"   Gusts: NA
Location:  48.29°N, 14.39°E
Report Text: LOWL 260050Z AUTO VRB02KT 7000 FEW007 BKN008 06/05 Q1026
Loading
Personal Weather Stations






























Interactive Weather Map
Tropical Storm Tracking
New forecast layout! Learn more

10-Day Weather Forecast

Advertisements
Track Severe Weather on mobile